sensor_id;sensor_type;location;lat;lon;timestamp;pressure;altitude;pressure_sealevel;temperature;humidity
56142;BME280;42018;48.588;10.836;2023-01-10T00:02:38;96440.00;;;4.31;83.64
56142;BME280;42018;48.588;10.836;2023-01-10T00:05:27;96445.66;;;4.40;82.76
56142;BME280;42018;48.588;10.836;2023-01-10T00:08:15;96442.56;;;4.43;82.37
56142;BME280;42018;48.588;10.836;2023-01-10T00:11:01;96448.41;;;4.45;82.22
56142;BME280;42018;48.588;10.836;2023-01-10T00:14:08;96454.97;;;4.60;82.17
56142;BME280;42018;48.588;10.836;2023-01-10T00:17:11;96464.41;;;4.61;81.75
56142;BME280;42018;48.588;10.836;2023-01-10T00:19:56;96462.16;;;4.52;81.41
56142;BME280;42018;48.588;10.836;2023-01-10T00:22:42;96467.22;;;4.42;82.38
56142;BME280;42018;48.588;10.836;2023-01-10T00:25:29;96473.38;;;4.36;82.18
56142;BME280;42018;48.588;10.836;2023-01-10T00:28:17;96484.06;;;4.46;82.35
56142;BME280;42018;48.588;10.836;2023-01-10T00:31:05;96480.81;;;4.27;83.10
56142;BME280;42018;48.588;10.836;2023-01-10T00:33:52;96482.66;;;4.27;82.57
56142;BME280;42018;48.588;10.836;2023-01-10T00:36:46;96494.84;;;4.21;83.01
56142;BME280;42018;48.588;10.836;2023-01-10T00:39:34;96490.72;;;4.25;83.16
56142;BME280;42018;48.588;10.836;2023-01-10T00:42:19;96495.66;;;4.22;83.12
56142;BME280;42018;48.588;10.836;2023-01-10T00:45:23;96498.56;;;4.37;82.80
56142;BME280;42018;48.588;10.836;2023-01-10T00:48:11;96500.94;;;4.50;81.50
56142;BME280;42018;48.588;10.836;2023-01-10T00:50:57;96507.09;;;4.56;81.61
56142;BME280;42018;48.588;10.836;2023-01-10T00:53:43;96505.72;;;4.53;81.14
56142;BME280;42018;48.588;10.836;2023-01-10T00:56:28;96511.97;;;4.64;81.42
56142;BME280;42018;48.588;10.836;2023-01-10T00:59:16;96522.00;;;4.67;81.10
56142;BME280;42018;48.588;10.836;2023-01-10T01:02:01;96524.34;;;4.52;81.37
56142;BME280;42018;48.588;10.836;2023-01-10T01:04:47;96534.34;;;4.55;81.70
56142;BME280;42018;48.588;10.836;2023-01-10T01:07:32;96539.41;;;4.33;82.58
56142;BME280;42018;48.588;10.836;2023-01-10T01:10:18;96537.59;;;4.22;82.85
56142;BME280;42018;48.588;10.836;2023-01-10T01:13:15;96544.44;;;3.76;85.19
56142;BME280;42018;48.588;10.836;2023-01-10T01:16:01;96541.69;;;3.82;84.74
56142;BME280;42018;48.588;10.836;2023-01-10T01:18:46;96549.66;;;3.76;84.77
56142;BME280;42018;48.588;10.836;2023-01-10T01:21:32;96553.66;;;3.90;84.31
56142;BME280;42018;48.588;10.836;2023-01-10T01:24:17;96565.31;;;4.06;83.64
56142;BME280;42018;48.588;10.836;2023-01-10T01:27:03;96563.56;;;3.76;84.64
56142;BME280;42018;48.588;10.836;2023-01-10T01:29:48;96573.72;;;3.84;84.52
56142;BME280;42018;48.588;10.836;2023-01-10T01:32:34;96571.81;;;4.03;83.81
56142;BME280;42018;48.588;10.836;2023-01-10T01:35:20;96570.31;;;4.07;83.52
56142;BME280;42018;48.588;10.836;2023-01-10T01:38:05;96575.88;;;3.88;84.28
56142;BME280;42018;48.588;10.836;2023-01-10T01:40:50;96576.69;;;3.88;84.65
56142;BME280;42018;48.588;10.836;2023-01-10T01:44:03;96585.09;;;3.78;84.82
56142;BME280;42018;48.588;10.836;2023-01-10T01:49:45;96589.66;;;3.83;84.75
56142;BME280;42018;48.588;10.836;2023-01-10T01:52:32;96595.59;;;3.78;84.93
56142;BME280;42018;48.588;10.836;2023-01-10T01:55:19;96603.19;;;3.68;85.24
56142;BME280;42018;48.588;10.836;2023-01-10T01:58:08;96602.56;;;3.84;84.88
56142;BME280;42018;48.588;10.836;2023-01-10T02:00:56;96597.31;;;3.84;84.69
56142;BME280;42018;48.588;10.836;2023-01-10T02:03:46;96603.59;;;3.95;84.17
56142;BME280;42018;48.588;10.836;2023-01-10T02:06:32;96600.50;;;3.87;84.81
56142;BME280;42018;48.588;10.836;2023-01-10T02:12:09;96617.25;;;3.97;84.28
56142;BME280;42018;48.588;10.836;2023-01-10T02:14:56;96614.53;;;3.92;84.30
56142;BME280;42018;48.588;10.836;2023-01-10T02:17:41;96614.00;;;3.60;85.53
56142;BME280;42018;48.588;10.836;2023-01-10T02:20:32;96619.84;;;3.74;85.43
56142;BME280;42018;48.588;10.836;2023-01-10T02:26:48;96628.19;;;3.82;84.58
56142;BME280;42018;48.588;10.836;2023-01-10T02:33:36;96619.25;;;3.60;85.44
56142;BME280;42018;48.588;10.836;2023-01-10T02:36:42;96627.94;;;3.72;84.73
56142;BME280;42018;48.588;10.836;2023-01-10T02:39:43;96640.50;;;3.82;84.04
56142;BME280;42018;48.588;10.836;2023-01-10T02:42:40;96645.38;;;3.78;83.97
56142;BME280;42018;48.588;10.836;2023-01-10T02:45:53;96643.00;;;3.89;83.39
56142;BME280;42018;48.588;10.836;2023-01-10T02:48:41;96649.16;;;3.94;83.23
56142;BME280;42018;48.588;10.836;2023-01-10T02:51:29;96653.59;;;3.94;82.63
56142;BME280;42018;48.588;10.836;2023-01-10T02:54:21;96656.59;;;3.97;83.30
56142;BME280;42018;48.588;10.836;2023-01-10T03:03:35;96679.03;;;3.93;83.21
56142;BME280;42018;48.588;10.836;2023-01-10T03:06:40;96679.38;;;3.97;83.54
56142;BME280;42018;48.588;10.836;2023-01-10T03:09:36;96681.41;;;3.95;83.16
56142;BME280;42018;48.588;10.836;2023-01-10T03:12:30;96686.22;;;3.98;83.41
56142;BME280;42018;48.588;10.836;2023-01-10T03:15:18;96678.78;;;3.95;83.59
56142;BME280;42018;48.588;10.836;2023-01-10T03:18:09;96695.53;;;3.94;83.83
56142;BME280;42018;48.588;10.836;2023-01-10T03:20:57;96687.69;;;3.94;84.00
56142;BME280;42018;48.588;10.836;2023-01-10T03:23:44;96692.75;;;4.07;83.35
56142;BME280;42018;48.588;10.836;2023-01-10T03:33:09;96702.28;;;4.01;84.16
56142;BME280;42018;48.588;10.836;2023-01-10T03:39:19;96719.50;;;4.09;84.31
56142;BME280;42018;48.588;10.836;2023-01-10T03:45:05;96729.84;;;3.92;84.51
56142;BME280;42018;48.588;10.836;2023-01-10T03:47:54;96733.44;;;3.79;85.08
56142;BME280;42018;48.588;10.836;2023-01-10T03:50:42;96737.22;;;3.83;84.98
56142;BME280;42018;48.588;10.836;2023-01-10T03:53:30;96741.31;;;3.79;85.34
56142;BME280;42018;48.588;10.836;2023-01-10T03:56:16;96757.34;;;3.71;85.77
56142;BME280;42018;48.588;10.836;2023-01-10T03:59:01;96769.50;;;3.66;86.84
56142;BME280;42018;48.588;10.836;2023-01-10T04:01:47;96773.56;;;3.62;87.29
56142;BME280;42018;48.588;10.836;2023-01-10T04:04:32;96771.19;;;3.60;87.53
56142;BME280;42018;48.588;10.836;2023-01-10T04:07:18;96783.56;;;3.53;88.69
56142;BME280;42018;48.588;10.836;2023-01-10T04:10:04;96781.38;;;3.50;88.67
56142;BME280;42018;48.588;10.836;2023-01-10T04:12:50;96788.81;;;3.53;88.86
56142;BME280;42018;48.588;10.836;2023-01-10T04:15:38;96793.75;;;3.43;90.01
56142;BME280;42018;48.588;10.836;2023-01-10T04:18:24;96800.63;;;3.55;89.26
56142;BME280;42018;48.588;10.836;2023-01-10T04:21:09;96810.03;;;3.45;90.16
56142;BME280;42018;48.588;10.836;2023-01-10T04:23:54;96818.91;;;3.62;90.09
56142;BME280;42018;48.588;10.836;2023-01-10T04:29:31;96835.88;;;3.78;89.50
56142;BME280;42018;48.588;10.836;2023-01-10T04:32:17;96844.53;;;3.78;89.19
56142;BME280;42018;48.588;10.836;2023-01-10T04:35:05;96853.94;;;3.68;90.08
56142;BME280;42018;48.588;10.836;2023-01-10T04:37:50;96849.19;;;3.58;91.04
56142;BME280;42018;48.588;10.836;2023-01-10T04:40:36;96854.84;;;3.55;91.01
56142;BME280;42018;48.588;10.836;2023-01-10T04:43:23;96866.41;;;3.47;91.58
56142;BME280;42018;48.588;10.836;2023-01-10T04:46:09;96869.28;;;3.46;92.10
56142;BME280;42018;48.588;10.836;2023-01-10T04:48:54;96868.31;;;3.58;91.46
56142;BME280;42018;48.588;10.836;2023-01-10T04:51:40;96864.41;;;3.68;90.48
56142;BME280;42018;48.588;10.836;2023-01-10T04:54:25;96872.19;;;3.56;90.09
56142;BME280;42018;48.588;10.836;2023-01-10T04:57:11;96876.53;;;3.62;90.43
56142;BME280;42018;48.588;10.836;2023-01-10T04:59:57;96885.34;;;3.49;90.71
56142;BME280;42018;48.588;10.836;2023-01-10T05:02:43;96880.91;;;3.68;90.64
56142;BME280;42018;48.588;10.836;2023-01-10T05:05:30;96890.72;;;3.54;89.63
56142;BME280;42018;48.588;10.836;2023-01-10T05:08:15;96886.22;;;3.43;91.00
56142;BME280;42018;48.588;10.836;2023-01-10T05:11:01;96888.53;;;3.51;90.58
56142;BME280;42018;48.588;10.836;2023-01-10T05:13:47;96901.75;;;3.63;90.14
56142;BME280;42018;48.588;10.836;2023-01-10T05:19:48;96921.72;;;3.39;90.50
56142;BME280;42018;48.588;10.836;2023-01-10T05:22:38;96927.47;;;3.48;90.80
56142;BME280;42018;48.588;10.836;2023-01-10T05:25:24;96935.63;;;3.58;89.63
56142;BME280;42018;48.588;10.836;2023-01-10T05:28:09;96932.09;;;3.71;89.10
56142;BME280;42018;48.588;10.836;2023-01-10T05:30:55;96944.19;;;3.72;89.16
56142;BME280;42018;48.588;10.836;2023-01-10T05:34:10;96962.16;;;3.87;88.68
56142;BME280;42018;48.588;10.836;2023-01-10T05:36:56;96966.53;;;3.74;89.66
56142;BME280;42018;48.588;10.836;2023-01-10T05:39:50;96964.53;;;3.70;90.00
56142;BME280;42018;48.588;10.836;2023-01-10T05:42:38;96965.00;;;3.67;89.41
56142;BME280;42018;48.588;10.836;2023-01-10T05:45:30;96968.50;;;3.79;88.77
56142;BME280;42018;48.588;10.836;2023-01-10T05:48:31;96987.88;;;3.53;89.70
56142;BME280;42018;48.588;10.836;2023-01-10T05:51:41;96991.44;;;3.58;89.63
56142;BME280;42018;48.588;10.836;2023-01-10T05:54:27;97000.59;;;3.49;89.83
56142;BME280;42018;48.588;10.836;2023-01-10T05:57:12;97009.63;;;3.53;90.51
56142;BME280;42018;48.588;10.836;2023-01-10T06:00:18;97006.38;;;3.58;89.85
56142;BME280;42018;48.588;10.836;2023-01-10T06:03:04;97020.13;;;3.53;89.53
56142;BME280;42018;48.588;10.836;2023-01-10T06:06:06;97021.75;;;3.48;90.36
56142;BME280;42018;48.588;10.836;2023-01-10T06:09:05;97031.34;;;3.60;89.33
56142;BME280;42018;48.588;10.836;2023-01-10T06:12:10;97031.25;;;3.49;89.85
56142;BME280;42018;48.588;10.836;2023-01-10T06:14:55;97034.69;;;3.43;89.86
56142;BME280;42018;48.588;10.836;2023-01-10T06:17:40;97044.50;;;3.54;88.89
56142;BME280;42018;48.588;10.836;2023-01-10T06:20:26;97050.19;;;3.44;89.34
56142;BME280;42018;48.588;10.836;2023-01-10T06:23:11;97062.50;;;3.44;89.19
56142;BME280;42018;48.588;10.836;2023-01-10T06:25:57;97064.56;;;3.35;89.99
56142;BME280;42018;48.588;10.836;2023-01-10T06:28:42;97082.38;;;3.20;91.42
56142;BME280;42018;48.588;10.836;2023-01-10T06:31:27;97082.25;;;3.40;90.84
56142;BME280;42018;48.588;10.836;2023-01-10T06:34:13;97086.84;;;3.44;90.64
56142;BME280;42018;48.588;10.836;2023-01-10T06:36:58;97095.84;;;3.55;89.74
56142;BME280;42018;48.588;10.836;2023-01-10T06:39:43;97106.34;;;3.55;89.48
56142;BME280;42018;48.588;10.836;2023-01-10T06:42:30;97120.03;;;3.57;89.02
56142;BME280;42018;48.588;10.836;2023-01-10T06:45:16;97124.91;;;3.53;89.03
56142;BME280;42018;48.588;10.836;2023-01-10T06:48:02;97133.28;;;3.62;89.23
56142;BME280;42018;48.588;10.836;2023-01-10T06:50:48;97143.81;;;3.55;89.82
56142;BME280;42018;48.588;10.836;2023-01-10T06:53:34;97142.81;;;3.56;88.95
56142;BME280;42018;48.588;10.836;2023-01-10T07:17:03;97202.06;;;3.96;86.13
56142;BME280;42018;48.588;10.836;2023-01-10T07:19:49;97201.06;;;3.90;85.76
56142;BME280;42018;48.588;10.836;2023-01-10T07:22:38;97220.03;;;3.92;86.11
56142;BME280;42018;48.588;10.836;2023-01-10T07:25:34;97220.91;;;4.11;85.27
56142;BME280;42018;48.588;10.836;2023-01-10T07:28:28;97220.13;;;4.04;84.61
56142;BME280;42018;48.588;10.836;2023-01-10T07:31:20;97223.97;;;4.01;84.54
56142;BME280;42018;48.588;10.836;2023-01-10T11:51:58;97456.59;;;4.84;71.44
56142;BME280;42018;48.588;10.836;2023-01-10T11:54:47;97460.53;;;5.00;72.81
56142;BME280;42018;48.588;10.836;2023-01-10T11:57:33;97444.09;;;5.11;72.50
56142;BME280;42018;48.588;10.836;2023-01-10T12:00:20;97443.41;;;5.22;72.67
56142;BME280;42018;48.588;10.836;2023-01-10T12:03:25;97449.50;;;5.23;72.49
56142;BME280;42018;48.588;10.836;2023-01-10T12:06:17;97443.03;;;5.19;73.00
56142;BME280;42018;48.588;10.836;2023-01-10T12:09:03;97448.09;;;5.20;74.06
56142;BME280;42018;48.588;10.836;2023-01-10T12:12:03;97448.59;;;5.04;73.63
56142;BME280;42018;48.588;10.836;2023-01-10T12:14:50;97453.31;;;4.95;72.71
56142;BME280;42018;48.588;10.836;2023-01-10T12:17:36;97455.78;;;5.15;71.19
56142;BME280;42018;48.588;10.836;2023-01-10T12:20:25;97457.78;;;4.88;71.25
56142;BME280;42018;48.588;10.836;2023-01-10T12:23:16;97456.94;;;4.94;72.00
56142;BME280;42018;48.588;10.836;2023-01-10T12:26:02;97457.69;;;5.01;71.25
56142;BME280;42018;48.588;10.836;2023-01-10T12:28:52;97460.03;;;4.85;71.41
56142;BME280;42018;48.588;10.836;2023-01-10T12:31:38;97469.34;;;4.80;71.61
56142;BME280;42018;48.588;10.836;2023-01-10T12:34:39;97466.44;;;4.57;72.23
56142;BME280;42018;48.588;10.836;2023-01-10T12:40:46;97463.50;;;4.78;71.30
56142;BME280;42018;48.588;10.836;2023-01-10T12:43:37;97457.06;;;4.74;71.68
56142;BME280;42018;48.588;10.836;2023-01-10T12:46:44;97463.50;;;4.78;70.71
56142;BME280;42018;48.588;10.836;2023-01-10T12:49:54;97471.47;;;4.97;69.83
56142;BME280;42018;48.588;10.836;2023-01-10T12:53:28;97464.09;;;4.80;70.61
56142;BME280;42018;48.588;10.836;2023-01-10T12:55:47;97459.50;;;4.69;71.61
56142;BME280;42018;48.588;10.836;2023-01-10T12:58:46;97455.19;;;4.82;71.69
56142;BME280;42018;48.588;10.836;2023-01-10T13:01:35;97460.03;;;4.85;71.18
56142;BME280;42018;48.588;10.836;2023-01-10T13:04:25;97451.69;;;4.63;71.47
56142;BME280;42018;48.588;10.836;2023-01-10T13:07:11;97450.63;;;4.70;71.07
56142;BME280;42018;48.588;10.836;2023-01-10T13:09:57;97458.38;;;4.52;71.46
56142;BME280;42018;48.588;10.836;2023-01-10T13:22:20;97467.22;;;4.57;71.73
56142;BME280;42018;48.588;10.836;2023-01-10T13:25:21;97460.22;;;4.83;71.02
56142;BME280;42018;48.588;10.836;2023-01-10T13:28:18;97454.41;;;4.81;70.70
56142;BME280;42018;48.588;10.836;2023-01-10T13:31:07;97448.28;;;4.87;70.35
56142;BME280;42018;48.588;10.836;2023-01-10T13:34:11;97450.72;;;4.89;71.14
56142;BME280;42018;48.588;10.836;2023-01-10T13:37:02;97460.16;;;4.96;71.22
56142;BME280;42018;48.588;10.836;2023-01-10T13:39:54;97453.84;;;5.04;70.37
56142;BME280;42018;48.588;10.836;2023-01-10T13:42:41;97457.28;;;5.04;70.40
56142;BME280;42018;48.588;10.836;2023-01-10T13:45:45;97463.31;;;5.05;70.16
56142;BME280;42018;48.588;10.836;2023-01-10T13:48:30;97463.19;;;4.93;70.55
56142;BME280;42018;48.588;10.836;2023-01-10T13:51:20;97456.59;;;4.84;70.60
56142;BME280;42018;48.588;10.836;2023-01-10T14:06:52;97457.53;;;4.96;71.61
56142;BME280;42018;48.588;10.836;2023-01-10T14:09:53;97451.19;;;5.11;69.57
56142;BME280;42018;48.588;10.836;2023-01-10T14:13:01;97464.97;;;5.06;69.77
56142;BME280;42018;48.588;10.836;2023-01-10T14:18:32;97469.16;;;5.14;69.10
56142;BME280;42018;48.588;10.836;2023-01-10T14:21:27;97466.91;;;5.17;68.15
56142;BME280;42018;48.588;10.836;2023-01-10T14:24:25;97464.59;;;5.27;68.85
56142;BME280;42018;48.588;10.836;2023-01-10T14:27:16;97458.00;;;5.18;69.13
56142;BME280;42018;48.588;10.836;2023-01-10T14:30:03;97458.59;;;5.20;67.15
56142;BME280;42018;48.588;10.836;2023-01-10T14:32:51;97464.16;;;5.06;67.04
56142;BME280;42018;48.588;10.836;2023-01-10T14:35:43;97460.09;;;5.10;67.40
56142;BME280;42018;48.588;10.836;2023-01-10T14:38:31;97457.91;;;5.00;66.45
56142;BME280;42018;48.588;10.836;2023-01-10T14:41:21;97455.13;;;5.26;66.42
56142;BME280;42018;48.588;10.836;2023-01-10T14:44:18;97462.53;;;5.04;65.50
56142;BME280;42018;48.588;10.836;2023-01-10T14:47:27;97460.69;;;5.05;65.73
56142;BME280;42018;48.588;10.836;2023-01-10T14:50:28;97461.72;;;5.04;66.73
56142;BME280;42018;48.588;10.836;2023-01-10T14:53:27;97462.63;;;4.91;66.27
56142;BME280;42018;48.588;10.836;2023-01-10T14:56:18;97471.16;;;5.12;66.08
56142;BME280;42018;48.588;10.836;2023-01-10T15:02:28;97470.22;;;5.06;65.10
56142;BME280;42018;48.588;10.836;2023-01-10T15:08:33;97458.06;;;5.05;64.80
56142;BME280;42018;48.588;10.836;2023-01-10T15:11:19;97454.03;;;5.09;64.67
56142;BME280;42018;48.588;10.836;2023-01-10T15:14:05;97454.69;;;4.98;64.81
56142;BME280;42018;48.588;10.836;2023-01-10T15:16:59;97452.25;;;5.03;65.54
56142;BME280;42018;48.588;10.836;2023-01-10T15:19:48;97462.16;;;5.01;64.88
56142;BME280;42018;48.588;10.836;2023-01-10T15:22:35;97463.78;;;5.02;65.51
56142;BME280;42018;48.588;10.836;2023-01-10T15:25:27;97454.75;;;4.91;64.74
56142;BME280;42018;48.588;10.836;2023-01-10T15:28:15;97449.59;;;5.10;65.30
56142;BME280;42018;48.588;10.836;2023-01-10T15:31:06;97446.94;;;5.10;65.81
56142;BME280;42018;48.588;10.836;2023-01-10T15:33:52;97447.09;;;5.15;65.63
56142;BME280;42018;48.588;10.836;2023-01-10T15:37:00;97449.91;;;4.88;66.68
56142;BME280;42018;48.588;10.836;2023-01-10T15:39:46;97444.84;;;4.87;66.07
56142;BME280;42018;48.588;10.836;2023-01-10T15:42:32;97443.88;;;4.88;65.76
56142;BME280;42018;48.588;10.836;2023-01-10T15:45:27;97436.31;;;4.98;65.96
56142;BME280;42018;48.588;10.836;2023-01-10T15:48:24;97439.50;;;5.07;66.65
56142;BME280;42018;48.588;10.836;2023-01-10T15:54:28;97438.09;;;5.04;66.38
56142;BME280;42018;48.588;10.836;2023-01-10T16:00:05;97430.56;;;4.83;68.15
56142;BME280;42018;48.588;10.836;2023-01-10T16:02:51;97432.81;;;4.72;68.36
56142;BME280;42018;48.588;10.836;2023-01-10T16:05:37;97432.81;;;4.72;68.22
56142;BME280;42018;48.588;10.836;2023-01-10T16:08:25;97431.47;;;4.63;68.20
56142;BME280;42018;48.588;10.836;2023-01-10T16:11:21;97438.16;;;4.59;68.47
56142;BME280;42018;48.588;10.836;2023-01-10T16:14:26;97428.31;;;4.48;68.86
56142;BME280;42018;48.588;10.836;2023-01-10T16:17:11;97425.75;;;4.41;69.53
56142;BME280;42018;48.588;10.836;2023-01-10T16:19:59;97419.50;;;4.36;70.25
56142;BME280;42018;48.588;10.836;2023-01-10T16:22:46;97424.97;;;4.27;69.83
56142;BME280;42018;48.588;10.836;2023-01-10T16:25:40;97418.09;;;4.26;69.54
56142;BME280;42018;48.588;10.836;2023-01-10T16:28:28;97425.44;;;4.11;70.64
56142;BME280;42018;48.588;10.836;2023-01-10T16:31:19;97427.44;;;4.09;70.40
56142;BME280;42018;48.588;10.836;2023-01-10T16:34:06;97413.34;;;4.10;70.83
56142;BME280;42018;48.588;10.836;2023-01-10T16:36:52;97408.88;;;4.17;70.99
56142;BME280;42018;48.588;10.836;2023-01-10T16:39:37;97394.66;;;4.38;70.04
56142;BME280;42018;48.588;10.836;2023-01-10T16:42:22;97393.31;;;4.22;69.19
56142;BME280;42018;48.588;10.836;2023-01-10T16:45:26;97388.25;;;4.27;70.01
56142;BME280;42018;48.588;10.836;2023-01-10T16:48:12;97386.59;;;4.33;69.91
56142;BME280;42018;48.588;10.836;2023-01-10T16:51:21;97386.56;;;4.40;68.81
56142;BME280;42018;48.588;10.836;2023-01-10T16:54:12;97386.69;;;4.20;69.15
56142;BME280;42018;48.588;10.836;2023-01-10T16:56:58;97391.50;;;4.23;69.54
56142;BME280;42018;48.588;10.836;2023-01-10T16:59:43;97383.34;;;3.93;68.49
56142;BME280;42018;48.588;10.836;2023-01-10T17:02:28;97404.19;;;3.48;70.15
56142;BME280;42018;48.588;10.836;2023-01-10T17:05:17;97397.16;;;3.22;70.45
56142;BME280;42018;48.588;10.836;2023-01-10T17:08:03;97399.59;;;3.03;71.21
56142;BME280;42018;48.588;10.836;2023-01-10T17:10:55;97401.78;;;3.13;71.98
56142;BME280;42018;48.588;10.836;2023-01-10T17:13:44;97397.72;;;2.77;72.82
56142;BME280;42018;48.588;10.836;2023-01-10T17:16:30;97409.84;;;2.78;73.42
56142;BME280;42018;48.588;10.836;2023-01-10T17:19:16;97407.00;;;2.80;73.54
56142;BME280;42018;48.588;10.836;2023-01-10T17:22:01;97398.38;;;2.99;72.83
56142;BME280;42018;48.588;10.836;2023-01-10T17:24:47;97397.97;;;3.22;72.55
56142;BME280;42018;48.588;10.836;2023-01-10T17:27:33;97399.38;;;3.18;71.25
56142;BME280;42018;48.588;10.836;2023-01-10T17:30:19;97400.41;;;3.04;71.80
56142;BME280;42018;48.588;10.836;2023-01-10T17:33:04;97401.81;;;3.00;72.78
56142;BME280;42018;48.588;10.836;2023-01-10T17:35:55;97396.78;;;3.18;72.17
56142;BME280;42018;48.588;10.836;2023-01-10T17:38:41;97389.72;;;3.25;71.67
56142;BME280;42018;48.588;10.836;2023-01-10T17:41:27;97396.78;;;3.25;71.70
56142;BME280;42018;48.588;10.836;2023-01-10T17:44:13;97390.91;;;3.36;71.83
56142;BME280;42018;48.588;10.836;2023-01-10T17:46:58;97389.13;;;3.10;71.50
56142;BME280;42018;48.588;10.836;2023-01-10T17:49:44;97385.06;;;2.74;72.50
56142;BME280;42018;48.588;10.836;2023-01-10T17:52:30;97378.19;;;2.53;73.37
56142;BME280;42018;48.588;10.836;2023-01-10T17:55:15;97377.91;;;2.22;74.46
56142;BME280;42018;48.588;10.836;2023-01-10T17:58:01;97374.59;;;2.06;74.92
56142;BME280;42018;48.588;10.836;2023-01-10T18:00:48;97377.22;;;2.00;75.05
56142;BME280;42018;48.588;10.836;2023-01-10T18:03:33;97376.41;;;2.06;75.53
56142;BME280;42018;48.588;10.836;2023-01-10T18:06:20;97370.38;;;1.99;76.06
56142;BME280;42018;48.588;10.836;2023-01-10T18:09:05;97375.59;;;1.57;77.53
56142;BME280;42018;48.588;10.836;2023-01-10T18:11:51;97382.22;;;1.60;77.80
56142;BME280;42018;48.588;10.836;2023-01-10T18:14:37;97375.56;;;1.51;78.40
56142;BME280;42018;48.588;10.836;2023-01-10T18:17:22;97370.94;;;1.53;78.55
56142;BME280;42018;48.588;10.836;2023-01-10T18:20:09;97362.00;;;1.68;78.33
56142;BME280;42018;48.588;10.836;2023-01-10T18:22:54;97363.59;;;2.11;77.29
56142;BME280;42018;48.588;10.836;2023-01-10T18:26:07;97365.41;;;2.10;75.99
56142;BME280;42018;48.588;10.836;2023-01-10T18:28:53;97364.16;;;2.06;76.82
56142;BME280;42018;48.588;10.836;2023-01-10T18:31:39;97350.94;;;2.14;76.16
56142;BME280;42018;48.588;10.836;2023-01-10T18:34:26;97352.16;;;2.25;74.95
56142;BME280;42018;48.588;10.836;2023-01-10T18:37:16;97354.94;;;2.10;75.80
56142;BME280;42018;48.588;10.836;2023-01-10T18:40:02;97352.53;;;1.61;76.90
56142;BME280;42018;48.588;10.836;2023-01-10T18:42:50;97361.50;;;1.52;78.56
56142;BME280;42018;48.588;10.836;2023-01-10T18:45:37;97357.66;;;1.82;77.96
56142;BME280;42018;48.588;10.836;2023-01-10T18:48:23;97361.31;;;1.95;75.85
56142;BME280;42018;48.588;10.836;2023-01-10T18:51:09;97365.44;;;1.76;76.56
56142;BME280;42018;48.588;10.836;2023-01-10T18:53:56;97367.34;;;1.54;78.15
56142;BME280;42018;48.588;10.836;2023-01-10T18:56:42;97365.75;;;1.59;77.89
56142;BME280;42018;48.588;10.836;2023-01-10T18:59:27;97365.88;;;1.79;77.02
56142;BME280;42018;48.588;10.836;2023-01-10T19:02:13;97357.91;;;1.59;78.22
56142;BME280;42018;48.588;10.836;2023-01-10T19:04:59;97350.66;;;1.55;78.85
56142;BME280;42018;48.588;10.836;2023-01-10T19:07:44;97343.81;;;1.47;79.07
56142;BME280;42018;48.588;10.836;2023-01-10T19:10:30;97345.78;;;1.45;78.97
56142;BME280;42018;48.588;10.836;2023-01-10T19:13:15;97339.81;;;1.51;79.92
56142;BME280;42018;48.588;10.836;2023-01-10T19:16:22;97341.03;;;1.55;78.88
56142;BME280;42018;48.588;10.836;2023-01-10T19:19:08;97345.97;;;1.78;77.69
56142;BME280;42018;48.588;10.836;2023-01-10T19:21:54;97340.63;;;1.24;79.98
56142;BME280;42018;48.588;10.836;2023-01-10T19:24:39;97343.59;;;0.86;81.73
56142;BME280;42018;48.588;10.836;2023-01-10T19:27:25;97339.66;;;0.97;82.20
56142;BME280;42018;48.588;10.836;2023-01-10T19:30:13;97326.56;;;0.90;82.46
56142;BME280;42018;48.588;10.836;2023-01-10T19:32:58;97333.19;;;0.92;82.35
56142;BME280;42018;48.588;10.836;2023-01-10T19:35:44;97321.94;;;0.92;82.71
56142;BME280;42018;48.588;10.836;2023-01-10T19:38:29;97327.31;;;1.12;82.03
56142;BME280;42018;48.588;10.836;2023-01-10T19:41:18;97324.13;;;1.16;81.52
56142;BME280;42018;48.588;10.836;2023-01-10T19:44:12;97325.81;;;1.31;80.45
56142;BME280;42018;48.588;10.836;2023-01-10T19:46:58;97324.34;;;1.15;80.50
56142;BME280;42018;48.588;10.836;2023-01-10T19:49:44;97316.31;;;1.16;80.85
56142;BME280;42018;48.588;10.836;2023-01-10T19:52:29;97314.19;;;0.99;80.87
56142;BME280;42018;48.588;10.836;2023-01-10T19:55:15;97313.41;;;1.05;81.38
56142;BME280;42018;48.588;10.836;2023-01-10T19:58:11;97304.69;;;0.91;82.06
56142;BME280;42018;48.588;10.836;2023-01-10T20:00:56;97309.00;;;0.77;82.06
56142;BME280;42018;48.588;10.836;2023-01-10T20:03:42;97304.84;;;0.83;81.95
56142;BME280;42018;48.588;10.836;2023-01-10T20:06:35;97296.72;;;0.71;82.66
56142;BME280;42018;48.588;10.836;2023-01-10T20:09:20;97303.63;;;0.85;82.14
56142;BME280;42018;48.588;10.836;2023-01-10T20:12:06;97304.31;;;0.66;83.57
56142;BME280;42018;48.588;10.836;2023-01-10T20:14:52;97311.56;;;0.70;83.50
56142;BME280;42018;48.588;10.836;2023-01-10T20:17:47;97313.22;;;0.78;83.97
56142;BME280;42018;48.588;10.836;2023-01-10T20:20:33;97313.91;;;0.87;84.07
56142;BME280;42018;48.588;10.836;2023-01-10T20:23:18;97312.13;;;0.94;83.79
56142;BME280;42018;48.588;10.836;2023-01-10T20:26:38;97317.22;;;1.02;83.38
56142;BME280;42018;48.588;10.836;2023-01-10T20:29:17;97305.75;;;1.03;83.53
56142;BME280;42018;48.588;10.836;2023-01-10T20:32:02;97297.19;;;0.81;84.16
56142;BME280;42018;48.588;10.836;2023-01-10T20:34:48;97299.75;;;1.03;84.21
56142;BME280;42018;48.588;10.836;2023-01-10T20:37:35;97300.91;;;0.93;84.24
56142;BME280;42018;48.588;10.836;2023-01-10T20:40:20;97304.16;;;1.02;83.98
56142;BME280;42018;48.588;10.836;2023-01-10T20:43:09;97297.00;;;1.11;83.47
56142;BME280;42018;48.588;10.836;2023-01-10T20:45:54;97291.41;;;1.14;83.39
56142;BME280;42018;48.588;10.836;2023-01-10T20:48:40;97291.75;;;1.46;82.38
56142;BME280;42018;48.588;10.836;2023-01-10T20:51:28;97293.94;;;1.35;82.26
56142;BME280;42018;48.588;10.836;2023-01-10T20:54:15;97286.28;;;1.34;82.25
56142;BME280;42018;48.588;10.836;2023-01-10T20:57:01;97284.84;;;1.31;82.56